createdAt,value
2023-03-17T00:02:11.655Z,59.79
2023-03-17T00:04:38.289Z,59.57
2023-03-17T00:07:05.369Z,60.13
2023-03-17T00:09:31.992Z,59.62
2023-03-17T00:11:58.596Z,59.60
2023-03-17T00:14:25.501Z,59.61
2023-03-17T00:16:52.720Z,59.52
2023-03-17T00:19:31.143Z,59.46
2023-03-17T00:21:58.253Z,59.52
2023-03-17T00:24:25.023Z,59.48
2023-03-17T00:26:51.585Z,59.52
2023-03-17T00:29:18.086Z,60.16
2023-03-17T00:31:45.680Z,60.11
2023-03-17T00:34:15.665Z,60.11
2023-03-17T00:36:42.682Z,59.12
2023-03-17T00:41:39.715Z,59.20
2023-03-17T00:44:06.489Z,58.43
2023-03-17T00:46:37.597Z,58.25
2023-03-17T00:49:10.639Z,58.12
2023-03-17T00:51:40.013Z,57.83
2023-03-17T00:54:06.986Z,57.57
2023-03-17T00:56:33.702Z,57.74
2023-03-17T00:59:00.227Z,57.89
2023-03-17T01:01:26.877Z,57.86
2023-03-17T01:03:53.459Z,57.65
2023-03-17T01:06:20.254Z,57.55
2023-03-17T01:08:47.471Z,58.07
2023-03-17T01:11:18.831Z,57.22
2023-03-17T01:13:47.014Z,57.56
2023-03-17T01:16:14.111Z,57.56
2023-03-17T01:18:40.909Z,57.98
2023-03-17T01:21:08.572Z,57.65
2023-03-17T01:23:35.197Z,58.04
2023-03-17T01:26:01.761Z,58.12
2023-03-17T01:28:28.316Z,58.62
2023-03-17T01:30:55.426Z,58.15
2023-03-17T01:33:22.622Z,57.92
2023-03-17T01:35:50.383Z,58.40
2023-03-17T01:38:17.541Z,58.41
2023-03-17T01:40:45.855Z,58.64
2023-03-17T01:43:12.298Z,58.03
2023-03-17T01:45:58.660Z,58.29
2023-03-17T01:48:26.157Z,57.33
2023-03-17T01:50:53.459Z,57.06
2023-03-17T01:53:21.411Z,57.33
2023-03-17T01:55:49.992Z,57.38
2023-03-17T01:58:19.424Z,57.99
2023-03-17T02:00:46.804Z,58.00
2023-03-17T02:03:13.271Z,58.76
2023-03-17T02:05:39.902Z,58.65
2023-03-17T02:08:12.566Z,59.27
2023-03-17T02:10:40.894Z,58.15
2023-03-17T02:13:08.756Z,58.66
2023-03-17T02:15:40.321Z,59.04
2023-03-17T02:18:07.448Z,58.47
2023-03-17T02:20:36.522Z,58.85
2023-03-17T02:23:04.292Z,59.33
2023-03-17T02:25:33.383Z,59.47
2023-03-17T02:28:08.419Z,59.54
2023-03-17T02:30:35.749Z,59.83
2023-03-17T02:33:03.497Z,59.82
2023-03-17T02:35:30.900Z,59.42
2023-03-17T02:37:57.660Z,59.94
2023-03-17T02:40:24.298Z,59.29
2023-03-17T02:42:51.357Z,59.90
2023-03-17T02:45:17.996Z,59.14
2023-03-17T02:47:45.319Z,59.02
2023-03-17T02:50:18.065Z,59.14
2023-03-17T02:52:44.699Z,58.86
2023-03-17T02:55:11.216Z,58.88
2023-03-17T02:57:37.686Z,58.99
2023-03-17T03:00:04.397Z,58.70
2023-03-17T03:02:31.281Z,58.54
2023-03-17T03:04:57.868Z,58.73
2023-03-17T03:07:24.326Z,58.23
2023-03-17T03:09:51.255Z,58.26
2023-03-17T03:12:17.828Z,58.11
2023-03-17T03:14:44.297Z,58.73
2023-03-17T03:17:11.092Z,57.72
2023-03-17T03:19:38.215Z,57.51
2023-03-17T03:22:04.865Z,58.04
2023-03-17T03:24:31.495Z,57.57
2023-03-17T03:26:57.974Z,57.30
2023-03-17T03:29:24.449Z,57.56
2023-03-17T03:31:51.228Z,57.49
2023-03-17T03:34:17.738Z,57.38
2023-03-17T03:36:44.272Z,57.41
2023-03-17T03:39:13.171Z,57.57
2023-03-17T03:41:41.254Z,57.76
2023-03-17T03:44:07.724Z,58.01
2023-03-17T03:46:34.330Z,57.19
2023-03-17T03:49:00.854Z,57.26
2023-03-17T03:51:27.361Z,57.49
2023-03-17T03:53:53.827Z,57.07
2023-03-17T03:56:20.813Z,57.07
2023-03-17T03:58:47.519Z,57.48
2023-03-17T04:01:14.108Z,57.23
2023-03-17T04:03:40.649Z,57.42
2023-03-17T04:06:07.137Z,57.22
2023-03-17T04:08:33.712Z,57.56
2023-03-17T04:11:00.489Z,57.02
2023-03-17T04:13:27.117Z,56.98
2023-03-17T04:15:53.643Z,56.98
2023-03-17T04:18:20.252Z,56.59
2023-03-17T04:20:46.821Z,57.10
2023-03-17T04:23:13.367Z,57.17
2023-03-17T04:25:39.973Z,56.79
2023-03-17T04:28:06.515Z,56.44
2023-03-17T04:30:33.308Z,56.53
2023-03-17T04:32:59.924Z,57.04
2023-03-17T04:35:27.161Z,57.05
2023-03-17T04:37:53.691Z,57.27
2023-03-17T04:40:20.694Z,56.67
2023-03-17T04:42:47.193Z,57.33
2023-03-17T04:45:16.957Z,56.80
2023-03-17T04:47:45.937Z,57.44
2023-03-17T04:50:13.161Z,57.56
2023-03-17T04:52:39.928Z,57.65
2023-03-17T04:55:08.350Z,57.41
2023-03-17T04:57:36.092Z,57.31
2023-03-17T05:00:03.825Z,57.12
2023-03-17T05:02:30.706Z,57.45
2023-03-17T05:04:57.202Z,57.63
2023-03-17T05:07:23.777Z,57.72
2023-03-17T05:09:50.280Z,58.21
2023-03-17T05:12:16.754Z,57.80
2023-03-17T05:14:43.266Z,57.33
2023-03-17T05:17:09.856Z,57.06
2023-03-17T05:19:36.484Z,57.20
2023-03-17T05:22:02.948Z,55.89
2023-03-17T05:24:29.574Z,55.78
2023-03-17T05:26:56.321Z,54.81
2023-03-17T05:29:23.139Z,54.97
2023-03-17T05:31:50.049Z,54.14
2023-03-17T05:34:17.399Z,54.63
2023-03-17T05:36:44.654Z,54.70
2023-03-17T05:39:13.352Z,54.71
2023-03-17T05:41:41.016Z,54.00
2023-03-17T05:44:08.569Z,52.92
2023-03-17T05:46:35.134Z,51.91
2023-03-17T05:49:01.760Z,51.21
2023-03-17T05:51:28.272Z,50.64
2023-03-17T05:53:54.777Z,50.53
2023-03-17T05:56:21.937Z,49.36
2023-03-17T05:58:48.917Z,49.28
2023-03-17T06:01:15.641Z,48.98
2023-03-17T06:03:42.164Z,48.46
2023-03-17T06:06:09.276Z,47.74
2023-03-17T06:08:35.931Z,47.79
2023-03-17T06:11:02.492Z,48.34
2023-03-17T06:13:29.026Z,48.11
2023-03-17T06:15:56.982Z,48.13
2023-03-17T06:18:23.488Z,48.03
2023-03-17T06:20:49.989Z,47.58
2023-03-17T06:23:17.029Z,47.20
2023-03-17T06:25:43.568Z,47.48
2023-03-17T06:28:10.299Z,47.79
2023-03-17T06:30:40.491Z,46.87
2023-03-17T06:33:08.203Z,47.03
2023-03-17T06:35:37.466Z,46.27
2023-03-17T06:38:05.143Z,46.39
2023-03-17T06:40:32.212Z,46.26
2023-03-17T06:42:58.872Z,45.86
2023-03-17T06:45:26.093Z,45.91
2023-03-17T06:47:52.957Z,45.23
2023-03-17T06:50:19.624Z,45.26
2023-03-17T06:52:47.034Z,45.12
2023-03-17T06:55:13.644Z,45.41
2023-03-17T06:57:40.493Z,45.19
2023-03-17T07:00:07.659Z,45.32
2023-03-17T07:02:34.688Z,46.39
2023-03-17T07:05:01.314Z,45.68
2023-03-17T07:07:28.030Z,46.03
2023-03-17T07:09:54.606Z,45.15
2023-03-17T07:12:21.814Z,45.45
2023-03-17T07:14:48.393Z,44.55
2023-03-17T07:17:14.988Z,44.22
2023-03-17T07:19:42.373Z,44.15
2023-03-17T07:22:11.876Z,43.99
2023-03-17T07:24:38.423Z,44.00
2023-03-17T07:27:04.967Z,43.38
2023-03-17T07:29:33.974Z,43.50
2023-03-17T07:32:01.235Z,43.70
2023-03-17T07:34:28.255Z,44.17
2023-03-17T07:36:54.855Z,43.75
2023-03-17T07:39:21.577Z,43.41
2023-03-17T07:41:52.877Z,43.07
2023-03-17T07:44:19.804Z,42.73
2023-03-17T07:46:46.610Z,43.11
2023-03-17T07:49:13.298Z,43.29
2023-03-17T07:51:43.126Z,42.69
2023-03-17T07:54:15.015Z,42.79
2023-03-17T07:56:42.423Z,42.95
2023-03-17T07:59:09.152Z,41.87
2023-03-17T08:01:35.999Z,42.27
2023-03-17T08:04:04.815Z,41.09
2023-03-17T08:06:32.565Z,41.40
2023-03-17T08:08:59.064Z,41.61
2023-03-17T08:11:27.243Z,40.84
2023-03-17T08:13:55.644Z,41.41
2023-03-17T08:16:22.871Z,40.59
2023-03-17T08:18:49.479Z,40.45
2023-03-17T08:21:16.692Z,40.28
2023-03-17T08:23:43.404Z,39.39
2023-03-17T08:26:10.327Z,39.10
2023-03-17T08:28:37.442Z,38.96
2023-03-17T08:31:11.026Z,39.46
2023-03-17T08:33:39.933Z,39.39
2023-03-17T08:36:07.093Z,38.32
2023-03-17T08:38:33.653Z,37.83
2023-03-17T08:41:04.566Z,39.24
2023-03-17T08:43:31.259Z,38.61
2023-03-17T08:46:06.860Z,38.85
2023-03-17T08:48:35.436Z,39.03
2023-03-17T08:51:02.030Z,38.60
2023-03-17T08:53:29.205Z,39.00
2023-03-17T08:55:57.140Z,38.44
2023-03-17T08:58:24.116Z,38.28
2023-03-17T09:00:50.707Z,38.37
2023-03-17T09:03:17.198Z,37.65
2023-03-17T09:05:44.126Z,37.70
2023-03-17T09:08:12.002Z,37.82
2023-03-17T09:10:40.361Z,37.77
2023-03-17T09:13:09.011Z,37.67
2023-03-17T09:15:36.689Z,37.45
2023-03-17T09:18:03.884Z,37.83
2023-03-17T09:20:30.616Z,37.10
2023-03-17T09:22:57.425Z,37.17
2023-03-17T09:25:24.362Z,37.19
2023-03-17T09:27:51.289Z,36.52
2023-03-17T09:30:17.985Z,36.54
2023-03-17T09:32:47.594Z,36.45
2023-03-17T09:35:14.315Z,36.11
2023-03-17T09:37:40.987Z,36.62
2023-03-17T09:40:09.272Z,36.17
2023-03-17T09:42:47.458Z,36.65
2023-03-17T09:45:26.087Z,35.86
2023-03-17T09:48:11.974Z,36.51
2023-03-17T09:50:50.780Z,36.53
2023-03-17T09:53:22.568Z,36.14
2023-03-17T09:55:52.846Z,36.19
2023-03-17T09:58:21.846Z,35.77
2023-03-17T10:00:48.714Z,35.93
2023-03-17T10:03:16.252Z,35.62
2023-03-17T10:05:42.809Z,35.99
2023-03-17T10:08:29.609Z,35.63
2023-03-17T10:10:56.882Z,35.69
2023-03-17T10:13:27.334Z,35.52
2023-03-17T10:15:57.139Z,35.76
2023-03-17T10:18:27.132Z,36.25
2023-03-17T10:21:02.256Z,35.99
2023-03-17T10:23:31.535Z,35.86
2023-03-17T10:26:00.986Z,36.25
2023-03-17T10:28:29.748Z,35.98
2023-03-17T10:31:13.144Z,36.07
2023-03-17T10:33:40.146Z,35.97
2023-03-17T10:36:09.103Z,35.55
2023-03-17T10:38:36.689Z,35.20
2023-03-17T10:41:06.936Z,35.51
2023-03-17T10:43:45.825Z,35.22
2023-03-17T10:46:31.415Z,34.78
2023-03-17T10:49:02.402Z,34.92
2023-03-17T10:51:36.899Z,34.24
2023-03-17T10:54:09.574Z,34.26
2023-03-17T10:56:37.878Z,34.83
2023-03-17T10:59:06.101Z,33.53
2023-03-17T11:01:41.485Z,33.98
2023-03-17T11:04:29.821Z,33.61
2023-03-17T11:06:58.353Z,33.47
2023-03-17T11:09:26.389Z,33.45
2023-03-17T11:12:04.476Z,33.76
2023-03-17T11:14:31.242Z,33.79
2023-03-17T11:16:59.946Z,32.88
2023-03-17T11:19:32.433Z,33.60
2023-03-17T11:22:15.604Z,33.03
2023-03-17T11:24:55.548Z,33.69
2023-03-17T11:27:32.716Z,33.01
2023-03-17T11:30:03.112Z,32.75
2023-03-17T11:32:39.306Z,32.73
2023-03-17T11:35:24.058Z,33.08
2023-03-17T11:37:56.647Z,32.49
2023-03-17T11:40:30.115Z,31.94
2023-03-17T11:43:13.310Z,31.70
2023-03-17T11:45:46.382Z,31.97
2023-03-17T11:48:15.649Z,31.21
2023-03-17T11:50:58.241Z,31.34
2023-03-17T11:53:33.760Z,31.36
2023-03-17T11:56:06.905Z,31.65
2023-03-17T11:58:41.956Z,31.90
2023-03-17T12:01:10.677Z,31.44
2023-03-17T12:03:41.295Z,31.12
2023-03-17T12:06:15.992Z,31.70
2023-03-17T12:08:45.910Z,31.53
2023-03-17T12:11:14.798Z,31.73
2023-03-17T12:13:42.975Z,30.92
2023-03-17T12:16:23.020Z,31.44
2023-03-17T12:18:59.131Z,31.50
2023-03-17T12:21:32.822Z,31.23
2023-03-17T12:24:06.668Z,31.18
2023-03-17T12:26:37.202Z,31.15
2023-03-17T12:29:12.984Z,31.42
2023-03-17T12:31:44.304Z,31.36
2023-03-17T12:34:22.595Z,31.09
2023-03-17T12:36:49.355Z,31.10
2023-03-17T12:39:18.185Z,30.90
2023-03-17T12:41:44.630Z,31.32
2023-03-17T12:44:11.279Z,30.81
2023-03-17T12:46:58.766Z,30.51
2023-03-17T12:49:25.312Z,30.92
2023-03-17T12:51:54.792Z,30.83
2023-03-17T12:54:47.901Z,30.67
2023-03-17T12:57:20.218Z,31.11
2023-03-17T12:59:48.797Z,30.50
2023-03-17T13:02:18.176Z,30.39
2023-03-17T13:04:49.245Z,30.17
2023-03-17T13:07:22.051Z,30.56
2023-03-17T13:09:49.762Z,30.42
2023-03-17T13:12:34.996Z,30.54
2023-03-17T13:15:01.679Z,30.60
2023-03-17T13:17:28.841Z,31.00
2023-03-17T13:20:07.298Z,30.73
2023-03-17T13:22:36.448Z,30.61
2023-03-17T13:25:14.164Z,30.81
2023-03-17T13:27:42.338Z,31.07
2023-03-17T13:30:25.825Z,30.86
2023-03-17T13:33:16.436Z,30.65
2023-03-17T13:36:02.613Z,30.47
2023-03-17T13:38:35.003Z,30.60
2023-03-17T13:41:10.564Z,30.90
2023-03-17T13:43:37.037Z,31.13
2023-03-17T13:46:22.629Z,30.92
2023-03-17T13:48:49.364Z,30.89
2023-03-17T13:51:20.116Z,31.19
2023-03-17T13:54:05.556Z,30.81
2023-03-17T13:56:38.031Z,30.85
2023-03-17T13:59:07.512Z,31.13
2023-03-17T14:01:43.135Z,31.19
2023-03-17T14:04:16.767Z,30.81
2023-03-17T14:06:43.646Z,31.42
2023-03-17T14:09:16.717Z,30.96
2023-03-17T14:11:45.404Z,31.62
2023-03-17T14:14:15.197Z,31.35
2023-03-17T14:16:59.996Z,30.55
2023-03-17T14:19:28.086Z,30.62
2023-03-17T14:21:55.620Z,31.04
2023-03-17T14:24:22.098Z,30.94
2023-03-17T14:26:50.225Z,30.52
2023-03-17T14:29:17.910Z,30.66
2023-03-17T14:31:48.813Z,30.83
2023-03-17T14:34:18.644Z,31.03
2023-03-17T14:36:45.147Z,31.02
2023-03-17T14:39:24.857Z,30.76
2023-03-17T14:41:59.288Z,31.11
2023-03-17T14:44:26.057Z,31.10
2023-03-17T14:47:00.414Z,30.72
2023-03-17T14:49:27.561Z,31.31
2023-03-17T14:51:54.124Z,30.72
2023-03-17T14:54:24.208Z,31.30
2023-03-17T14:57:01.803Z,31.23
2023-03-17T14:59:33.800Z,30.86
2023-03-17T15:02:02.018Z,31.44
2023-03-17T15:04:33.008Z,31.33
2023-03-17T15:07:04.642Z,31.27
2023-03-17T15:09:33.996Z,30.73
2023-03-17T15:12:07.364Z,31.21
2023-03-17T15:14:35.678Z,30.91
2023-03-17T15:17:03.777Z,30.89
2023-03-17T15:19:38.885Z,31.34
2023-03-17T15:22:21.625Z,30.96
2023-03-17T15:25:06.757Z,31.04
2023-03-17T15:27:33.383Z,30.52
2023-03-17T15:29:59.893Z,30.34
2023-03-17T15:32:26.975Z,30.67
2023-03-17T15:34:56.418Z,30.53
2023-03-17T15:37:32.775Z,30.72
2023-03-17T15:40:00.177Z,30.83
2023-03-17T15:42:28.436Z,30.89
2023-03-17T15:44:55.470Z,31.34
2023-03-17T15:47:23.647Z,30.99
2023-03-17T15:49:50.965Z,30.92
2023-03-17T15:52:21.776Z,30.82
2023-03-17T15:54:48.678Z,31.13
2023-03-17T15:57:15.202Z,31.06
2023-03-17T15:59:42.030Z,30.94
2023-03-17T16:02:48.065Z,31.15
2023-03-17T16:05:22.806Z,31.23
2023-03-17T16:07:55.570Z,31.13
2023-03-17T16:10:24.373Z,31.51
2023-03-17T16:12:51.066Z,31.80
2023-03-17T16:15:22.924Z,31.79
2023-03-17T16:17:52.499Z,31.39
2023-03-17T16:20:22.394Z,31.97
2023-03-17T16:22:49.668Z,31.89
2023-03-17T16:25:19.877Z,31.78
2023-03-17T16:27:46.675Z,32.37
2023-03-17T16:30:17.442Z,32.00
2023-03-17T16:32:44.321Z,31.88
2023-03-17T16:35:29.485Z,32.23
2023-03-17T16:37:58.905Z,32.43
2023-03-17T16:40:33.354Z,32.57
2023-03-17T16:43:00.033Z,33.01
2023-03-17T16:45:32.802Z,33.08
2023-03-17T16:48:00.951Z,32.86
2023-03-17T16:50:29.426Z,32.83
2023-03-17T16:52:56.952Z,33.21
2023-03-17T16:55:25.389Z,33.11
2023-03-17T16:57:53.688Z,33.04
2023-03-17T17:00:21.817Z,33.29
2023-03-17T17:02:49.822Z,33.58
2023-03-17T17:05:17.893Z,33.82
2023-03-17T17:07:48.320Z,33.60
2023-03-17T17:10:16.516Z,33.77
2023-03-17T17:12:43.394Z,33.48
2023-03-17T17:15:12.455Z,33.77
2023-03-17T17:17:40.693Z,33.74
2023-03-17T17:20:14.425Z,33.82
2023-03-17T17:22:41.167Z,33.90
2023-03-17T17:25:09.965Z,33.95
2023-03-17T17:27:46.480Z,33.97
2023-03-17T17:30:14.724Z,33.79
2023-03-17T17:32:41.331Z,34.40
2023-03-17T17:35:08.485Z,34.56
2023-03-17T17:37:35.163Z,34.50
2023-03-17T17:40:02.126Z,34.28
2023-03-17T17:42:28.751Z,34.13
2023-03-17T17:44:55.325Z,35.03
2023-03-17T17:47:21.797Z,34.42
2023-03-17T17:49:48.308Z,34.92
2023-03-17T17:52:14.903Z,35.64
2023-03-17T17:54:41.421Z,35.85
2023-03-17T17:57:08.059Z,35.73
2023-03-17T17:59:39.452Z,36.16
2023-03-17T18:02:12.903Z,35.98
2023-03-17T18:04:39.476Z,35.76
2023-03-17T18:07:08.368Z,35.53
2023-03-17T18:09:37.738Z,36.04
2023-03-17T18:12:06.829Z,35.80
2023-03-17T18:14:35.913Z,35.84
2023-03-17T18:17:05.439Z,35.87
2023-03-17T18:19:32.041Z,36.43
2023-03-17T18:21:58.536Z,36.04
2023-03-17T18:24:25.032Z,36.31
2023-03-17T18:26:52.496Z,36.52
2023-03-17T18:29:18.977Z,36.62
2023-03-17T18:31:52.486Z,36.88
2023-03-17T18:34:24.291Z,36.32
2023-03-17T18:36:51.969Z,36.84
2023-03-17T18:39:19.606Z,36.39
2023-03-17T18:41:46.111Z,36.47
2023-03-17T18:44:12.748Z,36.50
2023-03-17T18:46:39.322Z,37.06
2023-03-17T18:49:06.373Z,36.81
2023-03-17T18:51:33.290Z,36.59
2023-03-17T18:53:59.920Z,36.43
2023-03-17T18:56:29.767Z,36.93
2023-03-17T18:58:56.619Z,37.07
2023-03-17T19:01:23.614Z,37.15
2023-03-17T19:03:50.440Z,37.14
2023-03-17T19:06:18.612Z,37.36
2023-03-17T19:08:45.310Z,36.66
2023-03-17T19:11:13.898Z,36.87
2023-03-17T19:13:40.432Z,37.21
2023-03-17T19:16:07.857Z,36.59
2023-03-17T19:18:34.794Z,37.14
2023-03-17T19:21:02.253Z,36.70
2023-03-17T19:23:29.037Z,36.66
2023-03-17T19:25:55.660Z,36.59
2023-03-17T19:28:22.163Z,37.22
2023-03-17T19:30:48.725Z,37.41
2023-03-17T19:33:15.943Z,36.86
2023-03-17T19:35:46.332Z,37.25
2023-03-17T19:38:13.761Z,37.39
2023-03-17T19:40:40.231Z,37.16
2023-03-17T19:43:06.781Z,37.25
2023-03-17T19:45:33.353Z,37.12
2023-03-17T19:48:00.123Z,37.91
2023-03-17T19:50:26.626Z,37.69
2023-03-17T19:52:53.324Z,37.60
2023-03-17T19:55:24.495Z,37.88
2023-03-17T19:57:51.546Z,37.92
2023-03-17T20:00:18.343Z,37.67
2023-03-17T20:02:45.268Z,37.85
2023-03-17T20:05:12.605Z,38.01
2023-03-17T20:07:39.201Z,38.44
2023-03-17T20:10:08.923Z,38.11
2023-03-17T20:12:38.021Z,38.51
2023-03-17T20:15:08.518Z,38.93
2023-03-17T20:17:35.313Z,38.60
2023-03-17T20:20:01.905Z,38.60
2023-03-17T20:22:28.378Z,38.32
2023-03-17T20:24:54.848Z,38.33
2023-03-17T20:27:21.355Z,38.42
2023-03-17T20:29:48.596Z,38.86
2023-03-17T20:32:15.077Z,38.38
2023-03-17T20:34:43.095Z,38.45
2023-03-17T20:37:10.329Z,38.20
2023-03-17T20:39:37.244Z,38.17
2023-03-17T20:42:09.928Z,38.34
2023-03-17T20:44:36.853Z,38.33
2023-03-17T20:47:03.720Z,38.62
2023-03-17T20:49:30.278Z,38.73
2023-03-17T20:51:56.877Z,38.64
2023-03-17T20:54:23.454Z,38.34
2023-03-17T20:56:53.718Z,38.47
2023-03-17T20:59:20.214Z,38.61
2023-03-17T21:01:46.849Z,38.66
2023-03-17T21:04:16.065Z,38.94
2023-03-17T21:06:43.026Z,38.82
2023-03-17T21:09:10.132Z,38.65
2023-03-17T21:11:37.740Z,38.48
2023-03-17T21:14:06.864Z,39.10
2023-03-17T21:16:34.063Z,38.68
2023-03-17T21:19:00.733Z,38.73
2023-03-17T21:21:27.663Z,39.03
2023-03-17T21:23:54.756Z,39.27
2023-03-17T21:26:21.288Z,39.11
2023-03-17T21:28:48.724Z,39.12
2023-03-17T21:31:17.124Z,39.24
2023-03-17T21:33:43.915Z,39.09
2023-03-17T21:36:10.474Z,39.42
2023-03-17T21:38:37.651Z,39.02
2023-03-17T21:41:20.247Z,39.21
2023-03-17T21:43:47.176Z,39.61
2023-03-17T21:46:14.489Z,39.38
2023-03-17T21:48:41.027Z,39.80
2023-03-17T21:51:08.598Z,39.33
2023-03-17T21:53:35.038Z,39.50
2023-03-17T21:56:01.557Z,39.81
2023-03-17T21:58:28.115Z,39.56
2023-03-17T22:00:54.657Z,39.13
2023-03-17T22:03:21.353Z,39.77
2023-03-17T22:05:48.433Z,39.76
2023-03-17T22:08:15.309Z,39.19
2023-03-17T22:10:41.798Z,39.73
2023-03-17T22:13:08.404Z,39.88
2023-03-17T22:15:35.172Z,39.83
2023-03-17T22:18:01.745Z,39.59
2023-03-17T22:20:30.577Z,39.44
2023-03-17T22:22:57.443Z,39.71
2023-03-17T22:25:23.986Z,39.66
2023-03-17T22:27:50.488Z,39.15
2023-03-17T22:30:17.124Z,39.50
2023-03-17T22:32:43.750Z,39.81
2023-03-17T22:35:11.240Z,40.07
2023-03-17T22:37:38.468Z,39.93
2023-03-17T22:40:06.350Z,40.07
2023-03-17T22:42:33.175Z,39.63
2023-03-17T22:44:59.626Z,40.16
2023-03-17T22:47:26.617Z,40.19
2023-03-17T22:49:53.250Z,40.54
2023-03-17T22:52:19.731Z,40.09
2023-03-17T22:54:46.333Z,39.90
2023-03-17T22:57:14.156Z,40.22
2023-03-17T22:59:40.668Z,39.85
2023-03-17T23:02:08.540Z,39.55
2023-03-17T23:04:35.905Z,39.68
2023-03-17T23:07:03.248Z,39.83
2023-03-17T23:09:29.708Z,39.80
2023-03-17T23:11:56.413Z,39.68
2023-03-17T23:14:23.461Z,40.10
2023-03-17T23:16:50.008Z,40.48
2023-03-17T23:19:16.690Z,40.50
2023-03-17T23:21:43.336Z,40.55
2023-03-17T23:24:10.272Z,40.64
2023-03-17T23:26:37.067Z,40.95
2023-03-17T23:29:04.479Z,40.76
2023-03-17T23:31:32.106Z,41.25
2023-03-17T23:33:58.728Z,41.27
2023-03-17T23:36:26.057Z,41.19
2023-03-17T23:38:52.948Z,40.98
2023-03-17T23:41:19.454Z,41.00
2023-03-17T23:43:46.824Z,41.72
2023-03-17T23:46:14.619Z,41.21
2023-03-17T23:48:42.883Z,41.36
2023-03-17T23:51:12.083Z,41.51
2023-03-17T23:53:39.693Z,41.73
2023-03-17T23:56:10.000Z,42.10
2023-03-17T23:58:37.390Z,42.32
